sensor_id;sensor_type;location;lat;lon;timestamp;temperature;humidity
2893;DHT22;1456;51.840;12.184;2023-03-01T00:01:58;-3.80;99.90
2893;DHT22;1456;51.840;12.184;2023-03-01T00:04:26;-3.90;99.90
2893;DHT22;1456;51.840;12.184;2023-03-01T00:06:53;-4.00;99.90
2893;DHT22;1456;51.840;12.184;2023-03-01T00:09:19;-4.00;99.90
2893;DHT22;1456;51.840;12.184;2023-03-01T00:11:45;-3.70;99.90
2893;DHT22;1456;51.840;12.184;2023-03-01T00:14:11;-3.90;99.90
2893;DHT22;1456;51.840;12.184;2023-03-01T00:16:40;-4.00;99.90
2893;DHT22;1456;51.840;12.184;2023-03-01T00:19:11;-4.00;99.90
2893;DHT22;1456;51.840;12.184;2023-03-01T00:21:37;-4.10;99.90
2893;DHT22;1456;51.840;12.184;2023-03-01T00:24:04;-4.10;99.90
2893;DHT22;1456;51.840;12.184;2023-03-01T00:26:31;-4.10;99.90
2893;DHT22;1456;51.840;12.184;2023-03-01T00:28:58;-4.10;99.90
2893;DHT22;1456;51.840;12.184;2023-03-01T00:31:27;-4.20;99.90
2893;DHT22;1456;51.840;12.184;2023-03-01T00:33:56;-4.20;99.90
2893;DHT22;1456;51.840;12.184;2023-03-01T00:36:25;-4.10;99.90
2893;DHT22;1456;51.840;12.184;2023-03-01T00:38:52;-4.20;99.90
2893;DHT22;1456;51.840;12.184;2023-03-01T00:41:18;-4.30;99.90
2893;DHT22;1456;51.840;12.184;2023-03-01T00:43:45;-4.30;99.90
2893;DHT22;1456;51.840;12.184;2023-03-01T00:46:22;-4.30;99.90
2893;DHT22;1456;51.840;12.184;2023-03-01T00:48:49;-4.20;99.90
2893;DHT22;1456;51.840;12.184;2023-03-01T00:51:27;-4.20;99.90
2893;DHT22;1456;51.840;12.184;2023-03-01T00:53:55;-4.30;99.90
2893;DHT22;1456;51.840;12.184;2023-03-01T00:56:23;-4.30;99.90
2893;DHT22;1456;51.840;12.184;2023-03-01T00:58:49;-4.30;99.90
2893;DHT22;1456;51.840;12.184;2023-03-01T01:01:19;-4.40;99.90
2893;DHT22;1456;51.840;12.184;2023-03-01T01:06:35;-4.50;99.90
2893;DHT22;1456;51.840;12.184;2023-03-01T01:09:02;-4.50;99.90
2893;DHT22;1456;51.840;12.184;2023-03-01T01:11:30;-4.50;99.90
2893;DHT22;1456;51.840;12.184;2023-03-01T01:13:57;-4.50;99.90
2893;DHT22;1456;51.840;12.184;2023-03-01T01:16:25;-4.50;99.90
2893;DHT22;1456;51.840;12.184;2023-03-01T01:18:52;-4.50;99.90
2893;DHT22;1456;51.840;12.184;2023-03-01T01:21:21;-4.50;99.90
2893;DHT22;1456;51.840;12.184;2023-03-01T01:23:47;-4.50;99.90
2893;DHT22;1456;51.840;12.184;2023-03-01T01:26:28;-4.50;99.90
2893;DHT22;1456;51.840;12.184;2023-03-01T01:28:56;-4.50;99.90
2893;DHT22;1456;51.840;12.184;2023-03-01T01:31:23;-4.50;99.90
2893;DHT22;1456;51.840;12.184;2023-03-01T01:33:50;-4.50;99.90
2893;DHT22;1456;51.840;12.184;2023-03-01T01:36:17;-4.50;99.90
2893;DHT22;1456;51.840;12.184;2023-03-01T01:38:42;-4.50;99.90
2893;DHT22;1456;51.840;12.184;2023-03-01T01:41:09;-4.50;99.90
2893;DHT22;1456;51.840;12.184;2023-03-01T01:43:45;-4.50;99.90
2893;DHT22;1456;51.840;12.184;2023-03-01T01:46:29;-4.50;99.90
2893;DHT22;1456;51.840;12.184;2023-03-01T01:49:33;-4.50;99.90
2893;DHT22;1456;51.840;12.184;2023-03-01T01:57:32;-4.60;99.90
2893;DHT22;1456;51.840;12.184;2023-03-01T02:00:02;-4.60;99.90
2893;DHT22;1456;51.840;12.184;2023-03-01T02:02:29;-4.70;99.90
2893;DHT22;1456;51.840;12.184;2023-03-01T02:05:06;-4.70;99.90
2893;DHT22;1456;51.840;12.184;2023-03-01T02:07:38;-4.70;99.90
2893;DHT22;1456;51.840;12.184;2023-03-01T02:10:08;-4.70;99.90
2893;DHT22;1456;51.840;12.184;2023-03-01T02:12:34;-4.70;99.90
2893;DHT22;1456;51.840;12.184;2023-03-01T02:15:01;-4.80;99.90
2893;DHT22;1456;51.840;12.184;2023-03-01T02:17:27;-4.80;99.90
2893;DHT22;1456;51.840;12.184;2023-03-01T02:22:55;-4.80;99.90
2893;DHT22;1456;51.840;12.184;2023-03-01T02:25:29;-4.70;99.90
2893;DHT22;1456;51.840;12.184;2023-03-01T02:30:37;-4.90;99.90
2893;DHT22;1456;51.840;12.184;2023-03-01T02:33:23;-4.90;99.90
2893;DHT22;1456;51.840;12.184;2023-03-01T02:35:49;-4.90;99.90
2893;DHT22;1456;51.840;12.184;2023-03-01T02:38:17;-5.00;99.90
2893;DHT22;1456;51.840;12.184;2023-03-01T02:40:44;-4.90;99.90
2893;DHT22;1456;51.840;12.184;2023-03-01T02:43:11;-5.00;99.90
2893;DHT22;1456;51.840;12.184;2023-03-01T02:45:37;-5.00;99.90
2893;DHT22;1456;51.840;12.184;2023-03-01T02:48:03;-5.00;99.90
2893;DHT22;1456;51.840;12.184;2023-03-01T02:55:41;-5.10;99.90
2893;DHT22;1456;51.840;12.184;2023-03-01T02:58:07;-5.20;99.90
2893;DHT22;1456;51.840;12.184;2023-03-01T03:00:39;-5.10;99.90
2893;DHT22;1456;51.840;12.184;2023-03-01T03:03:21;-5.10;99.90
2893;DHT22;1456;51.840;12.184;2023-03-01T03:05:47;-5.10;99.90
2893;DHT22;1456;51.840;12.184;2023-03-01T03:08:14;-5.10;99.90
2893;DHT22;1456;51.840;12.184;2023-03-01T03:10:49;-5.00;99.90
2893;DHT22;1456;51.840;12.184;2023-03-01T03:13:18;-5.10;99.90
2893;DHT22;1456;51.840;12.184;2023-03-01T03:15:44;-5.10;99.90
2893;DHT22;1456;51.840;12.184;2023-03-01T03:18:17;-5.20;99.90
2893;DHT22;1456;51.840;12.184;2023-03-01T03:20:44;-5.10;99.90
2893;DHT22;1456;51.840;12.184;2023-03-01T03:23:10;-5.20;99.90
2893;DHT22;1456;51.840;12.184;2023-03-01T03:25:36;-5.20;99.90
2893;DHT22;1456;51.840;12.184;2023-03-01T03:28:04;-5.20;99.90
2893;DHT22;1456;51.840;12.184;2023-03-01T03:30:36;-5.20;99.90
2893;DHT22;1456;51.840;12.184;2023-03-01T03:33:05;-5.30;99.90
2893;DHT22;1456;51.840;12.184;2023-03-01T03:35:42;-5.20;99.90
2893;DHT22;1456;51.840;12.184;2023-03-01T03:38:10;-5.30;99.90
2893;DHT22;1456;51.840;12.184;2023-03-01T03:40:54;-5.30;99.90
2893;DHT22;1456;51.840;12.184;2023-03-01T03:43:27;-5.30;99.90
2893;DHT22;1456;51.840;12.184;2023-03-01T03:45:53;-5.30;99.90
2893;DHT22;1456;51.840;12.184;2023-03-01T03:48:19;-5.40;99.90
2893;DHT22;1456;51.840;12.184;2023-03-01T03:50:54;-5.40;99.90
2893;DHT22;1456;51.840;12.184;2023-03-01T03:53:22;-5.40;99.90
2893;DHT22;1456;51.840;12.184;2023-03-01T03:55:48;-5.40;99.90
2893;DHT22;1456;51.840;12.184;2023-03-01T03:58:17;-5.40;99.90
2893;DHT22;1456;51.840;12.184;2023-03-01T04:00:45;-5.40;99.90
2893;DHT22;1456;51.840;12.184;2023-03-01T04:03:13;-5.40;99.90
2893;DHT22;1456;51.840;12.184;2023-03-01T04:05:40;-5.40;99.90
2893;DHT22;1456;51.840;12.184;2023-03-01T04:08:07;-5.40;99.90
2893;DHT22;1456;51.840;12.184;2023-03-01T04:10:36;-5.40;99.90
2893;DHT22;1456;51.840;12.184;2023-03-01T04:13:04;-5.50;99.90
2893;DHT22;1456;51.840;12.184;2023-03-01T04:15:31;-5.60;99.90
2893;DHT22;1456;51.840;12.184;2023-03-01T04:17:58;-5.50;99.90
2893;DHT22;1456;51.840;12.184;2023-03-01T04:20:26;-5.50;99.90
2893;DHT22;1456;51.840;12.184;2023-03-01T04:25:24;-5.50;99.90
2893;DHT22;1456;51.840;12.184;2023-03-01T04:27:49;-5.60;99.90
2893;DHT22;1456;51.840;12.184;2023-03-01T04:30:15;-5.60;99.90
2893;DHT22;1456;51.840;12.184;2023-03-01T04:32:41;-5.60;99.90
2893;DHT22;1456;51.840;12.184;2023-03-01T04:35:08;-5.60;99.90
2893;DHT22;1456;51.840;12.184;2023-03-01T04:37:34;-5.60;99.90
2893;DHT22;1456;51.840;12.184;2023-03-01T04:40:01;-5.60;99.90
2893;DHT22;1456;51.840;12.184;2023-03-01T04:42:33;-5.60;99.90
2893;DHT22;1456;51.840;12.184;2023-03-01T04:44:58;-5.70;99.90
2893;DHT22;1456;51.840;12.184;2023-03-01T04:47:24;-5.70;99.90
2893;DHT22;1456;51.840;12.184;2023-03-01T04:49:50;-5.60;99.90
2893;DHT22;1456;51.840;12.184;2023-03-01T04:52:15;-5.60;99.90
2893;DHT22;1456;51.840;12.184;2023-03-01T04:54:41;-5.60;99.90
2893;DHT22;1456;51.840;12.184;2023-03-01T04:57:08;-5.60;99.90
2893;DHT22;1456;51.840;12.184;2023-03-01T04:59:34;-5.70;99.90
2893;DHT22;1456;51.840;12.184;2023-03-01T05:02:01;-5.60;99.90
2893;DHT22;1456;51.840;12.184;2023-03-01T05:04:27;-5.70;99.90
2893;DHT22;1456;51.840;12.184;2023-03-01T05:06:53;-5.70;99.90
2893;DHT22;1456;51.840;12.184;2023-03-01T05:09:19;-5.70;99.90
2893;DHT22;1456;51.840;12.184;2023-03-01T05:11:44;-5.70;99.90
2893;DHT22;1456;51.840;12.184;2023-03-01T05:14:11;-5.70;99.90
2893;DHT22;1456;51.840;12.184;2023-03-01T05:16:36;-5.70;99.90
2893;DHT22;1456;51.840;12.184;2023-03-01T05:19:03;-5.70;99.90
2893;DHT22;1456;51.840;12.184;2023-03-01T05:21:44;-5.70;99.90
2893;DHT22;1456;51.840;12.184;2023-03-01T05:24:30;-5.80;99.90
2893;DHT22;1456;51.840;12.184;2023-03-01T05:26:56;-5.80;99.90
2893;DHT22;1456;51.840;12.184;2023-03-01T05:29:22;-5.80;99.90
2893;DHT22;1456;51.840;12.184;2023-03-01T05:31:59;-5.80;99.90
2893;DHT22;1456;51.840;12.184;2023-03-01T05:34:29;-5.80;99.90
2893;DHT22;1456;51.840;12.184;2023-03-01T05:36:55;-5.90;99.90
2893;DHT22;1456;51.840;12.184;2023-03-01T05:39:24;-5.90;99.90
2893;DHT22;1456;51.840;12.184;2023-03-01T05:41:55;-5.90;99.90
2893;DHT22;1456;51.840;12.184;2023-03-01T05:44:22;-5.90;99.90
2893;DHT22;1456;51.840;12.184;2023-03-01T05:46:48;-5.90;99.90
2893;DHT22;1456;51.840;12.184;2023-03-01T05:49:15;-5.90;99.90
2893;DHT22;1456;51.840;12.184;2023-03-01T05:51:42;-5.90;99.90
2893;DHT22;1456;51.840;12.184;2023-03-01T05:54:09;-5.90;99.90
2893;DHT22;1456;51.840;12.184;2023-03-01T05:56:37;-5.90;99.90
2893;DHT22;1456;51.840;12.184;2023-03-01T05:59:04;-5.70;99.90
2893;DHT22;1456;51.840;12.184;2023-03-01T06:01:33;-5.90;99.90
2893;DHT22;1456;51.840;12.184;2023-03-01T06:04:01;-5.90;99.90
2893;DHT22;1456;51.840;12.184;2023-03-01T06:06:27;-5.90;99.90
2893;DHT22;1456;51.840;12.184;2023-03-01T06:08:53;-5.80;99.90
2893;DHT22;1456;51.840;12.184;2023-03-01T06:11:20;-5.80;99.90
2893;DHT22;1456;51.840;12.184;2023-03-01T06:13:46;-5.80;99.90
2893;DHT22;1456;51.840;12.184;2023-03-01T06:16:14;-5.80;99.90
2893;DHT22;1456;51.840;12.184;2023-03-01T06:18:40;-5.70;99.90
2893;DHT22;1456;51.840;12.184;2023-03-01T06:21:07;-5.70;99.90
2893;DHT22;1456;51.840;12.184;2023-03-01T06:23:33;-5.60;99.90
2893;DHT22;1456;51.840;12.184;2023-03-01T06:25:59;-5.60;99.90
2893;DHT22;1456;51.840;12.184;2023-03-01T06:28:25;-5.50;99.90
2893;DHT22;1456;51.840;12.184;2023-03-01T06:30:51;-5.40;99.90
2893;DHT22;1456;51.840;12.184;2023-03-01T06:33:17;-5.40;99.90
2893;DHT22;1456;51.840;12.184;2023-03-01T06:35:46;-5.30;99.90
2893;DHT22;1456;51.840;12.184;2023-03-01T06:38:12;-5.20;99.90
2893;DHT22;1456;51.840;12.184;2023-03-01T06:40:40;-5.10;99.90
2893;DHT22;1456;51.840;12.184;2023-03-01T06:43:06;-5.00;99.90
2893;DHT22;1456;51.840;12.184;2023-03-01T06:45:33;-4.90;99.90
2893;DHT22;1456;51.840;12.184;2023-03-01T06:48:06;-4.60;99.90
2893;DHT22;1456;51.840;12.184;2023-03-01T06:50:33;-4.60;99.90
2893;DHT22;1456;51.840;12.184;2023-03-01T06:53:01;-4.30;99.90
2893;DHT22;1456;51.840;12.184;2023-03-01T06:55:27;-4.20;99.90
2893;DHT22;1456;51.840;12.184;2023-03-01T06:57:57;-4.20;99.90
2893;DHT22;1456;51.840;12.184;2023-03-01T07:00:23;-4.10;99.90
2893;DHT22;1456;51.840;12.184;2023-03-01T07:02:49;-4.00;99.90
2893;DHT22;1456;51.840;12.184;2023-03-01T07:05:15;-3.70;99.90
2893;DHT22;1456;51.840;12.184;2023-03-01T07:07:41;-3.80;99.90
2893;DHT22;1456;51.840;12.184;2023-03-01T07:10:08;-3.80;99.90
2893;DHT22;1456;51.840;12.184;2023-03-01T07:12:33;-3.50;99.90
2893;DHT22;1456;51.840;12.184;2023-03-01T07:14:59;-3.40;99.90
2893;DHT22;1456;51.840;12.184;2023-03-01T07:17:25;-3.10;99.90
2893;DHT22;1456;51.840;12.184;2023-03-01T07:19:51;-2.90;99.90
2893;DHT22;1456;51.840;12.184;2023-03-01T07:22:16;-2.80;99.90
2893;DHT22;1456;51.840;12.184;2023-03-01T07:24:43;-2.50;99.90
2893;DHT22;1456;51.840;12.184;2023-03-01T07:27:09;-2.50;99.90
2893;DHT22;1456;51.840;12.184;2023-03-01T07:29:35;-2.30;99.90
2893;DHT22;1456;51.840;12.184;2023-03-01T07:32:05;-2.20;99.90
2893;DHT22;1456;51.840;12.184;2023-03-01T07:34:31;-1.90;99.90
2893;DHT22;1456;51.840;12.184;2023-03-01T07:36:57;-1.80;99.90
2893;DHT22;1456;51.840;12.184;2023-03-01T07:39:23;-1.40;99.90
2893;DHT22;1456;51.840;12.184;2023-03-01T07:41:50;-1.50;99.90
2893;DHT22;1456;51.840;12.184;2023-03-01T07:44:16;-1.20;99.90
2893;DHT22;1456;51.840;12.184;2023-03-01T07:46:43;-1.30;99.90
2893;DHT22;1456;51.840;12.184;2023-03-01T07:49:08;-1.10;99.90
2893;DHT22;1456;51.840;12.184;2023-03-01T07:51:34;-0.90;99.90
2893;DHT22;1456;51.840;12.184;2023-03-01T07:54:00;-0.90;99.90
2893;DHT22;1456;51.840;12.184;2023-03-01T07:56:26;-0.80;99.90
2893;DHT22;1456;51.840;12.184;2023-03-01T07:58:52;-0.60;99.90
2893;DHT22;1456;51.840;12.184;2023-03-01T08:01:19;-0.50;99.90
2893;DHT22;1456;51.840;12.184;2023-03-01T08:03:48;-0.40;99.90
2893;DHT22;1456;51.840;12.184;2023-03-01T08:06:15;-0.10;99.90
2893;DHT22;1456;51.840;12.184;2023-03-01T08:08:41;-0.20;99.90
2893;DHT22;1456;51.840;12.184;2023-03-01T08:11:11;0.00;99.90
2893;DHT22;1456;51.840;12.184;2023-03-01T08:13:39;0.30;99.90
2893;DHT22;1456;51.840;12.184;2023-03-01T08:16:07;0.40;99.90
2893;DHT22;1456;51.840;12.184;2023-03-01T08:18:34;0.60;99.90
2893;DHT22;1456;51.840;12.184;2023-03-01T08:21:04;0.80;99.90
2893;DHT22;1456;51.840;12.184;2023-03-01T08:23:33;0.90;99.90
2893;DHT22;1456;51.840;12.184;2023-03-01T08:26:17;1.00;99.90
2893;DHT22;1456;51.840;12.184;2023-03-01T08:28:44;1.10;99.90
2893;DHT22;1456;51.840;12.184;2023-03-01T08:33:41;1.40;99.90
2893;DHT22;1456;51.840;12.184;2023-03-01T08:36:07;1.60;99.90
2893;DHT22;1456;51.840;12.184;2023-03-01T08:38:34;1.70;99.90
2893;DHT22;1456;51.840;12.184;2023-03-01T08:41:01;1.90;99.90
2893;DHT22;1456;51.840;12.184;2023-03-01T08:43:27;2.10;99.90
2893;DHT22;1456;51.840;12.184;2023-03-01T08:45:54;2.20;99.90
2893;DHT22;1456;51.840;12.184;2023-03-01T08:48:19;2.40;99.90
2893;DHT22;1456;51.840;12.184;2023-03-01T08:50:45;2.60;99.90
2893;DHT22;1456;51.840;12.184;2023-03-01T08:53:12;2.70;99.90
2893;DHT22;1456;51.840;12.184;2023-03-01T08:55:37;2.90;99.90
2893;DHT22;1456;51.840;12.184;2023-03-01T08:58:03;3.00;99.90
2893;DHT22;1456;51.840;12.184;2023-03-01T09:00:29;3.20;99.90
2893;DHT22;1456;51.840;12.184;2023-03-01T09:02:57;3.30;99.60
2893;DHT22;1456;51.840;12.184;2023-03-01T09:05:22;3.40;99.00
2893;DHT22;1456;51.840;12.184;2023-03-01T09:07:48;3.60;98.80
2893;DHT22;1456;51.840;12.184;2023-03-01T09:10:15;3.70;99.20
2893;DHT22;1456;51.840;12.184;2023-03-01T09:12:44;3.80;97.40
2893;DHT22;1456;51.840;12.184;2023-03-01T09:15:10;3.90;97.30
2893;DHT22;1456;51.840;12.184;2023-03-01T09:17:36;4.00;97.30
2893;DHT22;1456;51.840;12.184;2023-03-01T09:20:03;4.20;96.90
2893;DHT22;1456;51.840;12.184;2023-03-01T09:22:32;4.20;96.90
2893;DHT22;1456;51.840;12.184;2023-03-01T09:24:58;4.40;97.30
2893;DHT22;1456;51.840;12.184;2023-03-01T09:27:25;4.40;95.50
2893;DHT22;1456;51.840;12.184;2023-03-01T09:29:53;4.50;95.90
2893;DHT22;1456;51.840;12.184;2023-03-01T09:32:18;4.60;96.20
2893;DHT22;1456;51.840;12.184;2023-03-01T09:34:45;4.70;95.60
2893;DHT22;1456;51.840;12.184;2023-03-01T09:37:32;4.80;95.20
2893;DHT22;1456;51.840;12.184;2023-03-01T09:39:59;4.90;96.50
2893;DHT22;1456;51.840;12.184;2023-03-01T09:42:25;5.00;96.10
2893;DHT22;1456;51.840;12.184;2023-03-01T09:45:06;5.10;95.10
2893;DHT22;1456;51.840;12.184;2023-03-01T09:47:35;5.20;94.60
2893;DHT22;1456;51.840;12.184;2023-03-01T09:50:16;5.30;94.50
2893;DHT22;1456;51.840;12.184;2023-03-01T09:53:04;5.40;93.50
2893;DHT22;1456;51.840;12.184;2023-03-01T09:55:40;5.40;93.10
2893;DHT22;1456;51.840;12.184;2023-03-01T10:00:41;5.50;93.10
2893;DHT22;1456;51.840;12.184;2023-03-01T10:03:49;5.60;93.20
2893;DHT22;1456;51.840;12.184;2023-03-01T10:06:21;5.80;92.90
2893;DHT22;1456;51.840;12.184;2023-03-01T10:08:54;5.90;92.30
2893;DHT22;1456;51.840;12.184;2023-03-01T10:11:26;6.00;92.20
2893;DHT22;1456;51.840;12.184;2023-03-01T10:20:33;6.60;90.40
2893;DHT22;1456;51.840;12.184;2023-03-01T10:23:04;6.80;88.10
2893;DHT22;1456;51.840;12.184;2023-03-01T10:26:07;6.90;87.40
2893;DHT22;1456;51.840;12.184;2023-03-01T10:42:37;8.70;84.40
2893;DHT22;1456;51.840;12.184;2023-03-01T10:51:50;10.30;78.50
2893;DHT22;1456;51.840;12.184;2023-03-01T10:54:30;10.50;77.00
2893;DHT22;1456;51.840;12.184;2023-03-01T10:57:04;11.00;75.60
2893;DHT22;1456;51.840;12.184;2023-03-01T10:59:32;11.40;77.20
2893;DHT22;1456;51.840;12.184;2023-03-01T11:02:23;11.90;73.00
2893;DHT22;1456;51.840;12.184;2023-03-01T11:07:29;12.60;67.80
2893;DHT22;1456;51.840;12.184;2023-03-01T11:09:55;12.80;70.40
2893;DHT22;1456;51.840;12.184;2023-03-01T11:12:22;13.30;69.10
2893;DHT22;1456;51.840;12.184;2023-03-01T11:14:53;13.30;63.40
2893;DHT22;1456;51.840;12.184;2023-03-01T11:17:29;13.70;64.80
2893;DHT22;1456;51.840;12.184;2023-03-01T11:20:27;13.80;65.90
2893;DHT22;1456;51.840;12.184;2023-03-01T11:22:58;14.10;62.20
2893;DHT22;1456;51.840;12.184;2023-03-01T11:25:39;14.30;60.70
2893;DHT22;1456;51.840;12.184;2023-03-01T11:28:10;14.00;56.80
2893;DHT22;1456;51.840;12.184;2023-03-01T11:33:17;14.40;59.20
2893;DHT22;1456;51.840;12.184;2023-03-01T11:35:55;14.90;59.10
2893;DHT22;1456;51.840;12.184;2023-03-01T11:38:29;15.70;57.40
2893;DHT22;1456;51.840;12.184;2023-03-01T11:41:07;15.80;54.60
2893;DHT22;1456;51.840;12.184;2023-03-01T11:44:11;16.40;54.30
2893;DHT22;1456;51.840;12.184;2023-03-01T11:46:49;16.70;52.60
2893;DHT22;1456;51.840;12.184;2023-03-01T11:55:35;17.60;48.80
2893;DHT22;1456;51.840;12.184;2023-03-01T12:20:11;19.90;40.60
2893;DHT22;1456;51.840;12.184;2023-03-01T12:25:29;20.00;39.80
2893;DHT22;1456;51.840;12.184;2023-03-01T12:44:55;21.20;35.70
2893;DHT22;1456;51.840;12.184;2023-03-01T12:50:23;20.00;33.30
2893;DHT22;1456;51.840;12.184;2023-03-01T12:52:55;19.80;33.80
2893;DHT22;1456;51.840;12.184;2023-03-01T12:55:33;19.80;34.60
2893;DHT22;1456;51.840;12.184;2023-03-01T13:12:32;21.50;33.60
2893;DHT22;1456;51.840;12.184;2023-03-01T13:14:53;22.40;36.00
2893;DHT22;1456;51.840;12.184;2023-03-01T13:17:39;23.10;35.70
2893;DHT22;1456;51.840;12.184;2023-03-01T13:20:13;23.30;32.40
2893;DHT22;1456;51.840;12.184;2023-03-01T13:22:40;23.80;32.90
2893;DHT22;1456;51.840;12.184;2023-03-01T13:25:19;24.30;34.90
2893;DHT22;1456;51.840;12.184;2023-03-01T13:27:46;25.10;32.60
2893;DHT22;1456;51.840;12.184;2023-03-01T13:35:50;23.20;31.00
2893;DHT22;1456;51.840;12.184;2023-03-01T13:41:11;23.10;32.50
2893;DHT22;1456;51.840;12.184;2023-03-01T13:43:40;23.60;31.50
2893;DHT22;1456;51.840;12.184;2023-03-01T13:46:20;24.40;31.00
2893;DHT22;1456;51.840;12.184;2023-03-01T13:48:51;24.40;30.80
2893;DHT22;1456;51.840;12.184;2023-03-01T13:51:25;24.90;32.10
2893;DHT22;1456;51.840;12.184;2023-03-01T13:53:52;25.10;30.20
2893;DHT22;1456;51.840;12.184;2023-03-01T13:56:28;25.70;30.00
2893;DHT22;1456;51.840;12.184;2023-03-01T13:59:02;25.90;31.20
2893;DHT22;1456;51.840;12.184;2023-03-01T14:01:32;25.50;30.00
2893;DHT22;1456;51.840;12.184;2023-03-01T14:03:58;25.60;30.00
2893;DHT22;1456;51.840;12.184;2023-03-01T14:06:31;25.90;29.50
2893;DHT22;1456;51.840;12.184;2023-03-01T14:09:17;25.40;29.10
2893;DHT22;1456;51.840;12.184;2023-03-01T14:19:33;25.30;30.00
2893;DHT22;1456;51.840;12.184;2023-03-01T14:22:10;25.60;29.70
2893;DHT22;1456;51.840;12.184;2023-03-01T14:25:04;26.10;29.90
2893;DHT22;1456;51.840;12.184;2023-03-01T14:27:37;26.90;29.50
2893;DHT22;1456;51.840;12.184;2023-03-01T14:30:15;27.30;29.50
2893;DHT22;1456;51.840;12.184;2023-03-01T14:32:55;27.90;28.90
2893;DHT22;1456;51.840;12.184;2023-03-01T14:35:24;28.00;28.40
2893;DHT22;1456;51.840;12.184;2023-03-01T14:37:50;28.30;28.10
2893;DHT22;1456;51.840;12.184;2023-03-01T14:40:36;28.40;27.50
2893;DHT22;1456;51.840;12.184;2023-03-01T14:43:09;28.70;28.10
2893;DHT22;1456;51.840;12.184;2023-03-01T14:45:36;29.00;26.80
2893;DHT22;1456;51.840;12.184;2023-03-01T14:48:04;27.70;26.70
2893;DHT22;1456;51.840;12.184;2023-03-01T14:50:35;27.40;27.30
2893;DHT22;1456;51.840;12.184;2023-03-01T14:53:04;27.20;27.70
2893;DHT22;1456;51.840;12.184;2023-03-01T14:55:41;27.20;27.30
2893;DHT22;1456;51.840;12.184;2023-03-01T14:58:19;26.60;26.80
2893;DHT22;1456;51.840;12.184;2023-03-01T15:03:42;26.90;27.60
2893;DHT22;1456;51.840;12.184;2023-03-01T15:06:10;27.40;26.70
2893;DHT22;1456;51.840;12.184;2023-03-01T15:08:50;28.00;26.90
2893;DHT22;1456;51.840;12.184;2023-03-01T15:13:48;28.40;26.30
2893;DHT22;1456;51.840;12.184;2023-03-01T15:16:31;27.30;26.40
2893;DHT22;1456;51.840;12.184;2023-03-01T15:19:00;26.00;26.70
2893;DHT22;1456;51.840;12.184;2023-03-01T15:21:30;25.10;26.50
2893;DHT22;1456;51.840;12.184;2023-03-01T15:26:45;23.00;26.80
2893;DHT22;1456;51.840;12.184;2023-03-01T15:29:21;21.00;26.30
2893;DHT22;1456;51.840;12.184;2023-03-01T15:32:02;18.60;27.50
2893;DHT22;1456;51.840;12.184;2023-03-01T15:34:35;16.70;28.80
2893;DHT22;1456;51.840;12.184;2023-03-01T15:37:04;14.90;29.10
2893;DHT22;1456;51.840;12.184;2023-03-01T15:39:53;13.50;30.00
2893;DHT22;1456;51.840;12.184;2023-03-01T15:45:24;11.10;31.20
2893;DHT22;1456;51.840;12.184;2023-03-01T15:47:56;10.30;31.80
2893;DHT22;1456;51.840;12.184;2023-03-01T15:50:29;9.60;34.00
2893;DHT22;1456;51.840;12.184;2023-03-01T15:52:58;9.20;34.50
2893;DHT22;1456;51.840;12.184;2023-03-01T15:55:27;8.80;34.60
2893;DHT22;1456;51.840;12.184;2023-03-01T15:58:18;8.50;35.40
2893;DHT22;1456;51.840;12.184;2023-03-01T16:00:45;8.30;35.10
2893;DHT22;1456;51.840;12.184;2023-03-01T16:03:11;8.00;35.90
2893;DHT22;1456;51.840;12.184;2023-03-01T16:05:38;7.80;36.10
2893;DHT22;1456;51.840;12.184;2023-03-01T16:08:04;7.70;36.80
2893;DHT22;1456;51.840;12.184;2023-03-01T16:10:35;7.50;36.40
2893;DHT22;1456;51.840;12.184;2023-03-01T16:13:01;7.40;37.70
2893;DHT22;1456;51.840;12.184;2023-03-01T16:15:30;7.20;37.50
2893;DHT22;1456;51.840;12.184;2023-03-01T16:17:57;7.10;38.10
2893;DHT22;1456;51.840;12.184;2023-03-01T16:20:28;6.90;37.60
2893;DHT22;1456;51.840;12.184;2023-03-01T16:23:04;6.90;38.40
2893;DHT22;1456;51.840;12.184;2023-03-01T16:25:32;6.80;39.30
2893;DHT22;1456;51.840;12.184;2023-03-01T16:27:58;6.60;38.80
2893;DHT22;1456;51.840;12.184;2023-03-01T16:30:26;6.50;39.70
2893;DHT22;1456;51.840;12.184;2023-03-01T16:32:53;6.40;40.10
2893;DHT22;1456;51.840;12.184;2023-03-01T16:35:21;6.30;41.40
2893;DHT22;1456;51.840;12.184;2023-03-01T16:37:49;6.20;41.80
2893;DHT22;1456;51.840;12.184;2023-03-01T16:40:27;6.10;40.80
2893;DHT22;1456;51.840;12.184;2023-03-01T16:42:56;6.00;41.70
2893;DHT22;1456;51.840;12.184;2023-03-01T16:45:29;5.80;41.80
2893;DHT22;1456;51.840;12.184;2023-03-01T16:47:58;5.70;41.80
2893;DHT22;1456;51.840;12.184;2023-03-01T16:50:24;5.50;42.20
2893;DHT22;1456;51.840;12.184;2023-03-01T16:52:50;5.40;43.00
2893;DHT22;1456;51.840;12.184;2023-03-01T16:55:16;5.20;43.20
2893;DHT22;1456;51.840;12.184;2023-03-01T16:57:42;5.10;44.30
2893;DHT22;1456;51.840;12.184;2023-03-01T17:00:10;5.00;44.00
2893;DHT22;1456;51.840;12.184;2023-03-01T17:02:36;4.80;45.80
2893;DHT22;1456;51.840;12.184;2023-03-01T17:05:03;4.70;46.00
2893;DHT22;1456;51.840;12.184;2023-03-01T17:07:30;4.60;46.40
2893;DHT22;1456;51.840;12.184;2023-03-01T17:10:04;4.50;47.10
2893;DHT22;1456;51.840;12.184;2023-03-01T17:12:30;4.30;47.40
2893;DHT22;1456;51.840;12.184;2023-03-01T17:14:59;4.20;48.20
2893;DHT22;1456;51.840;12.184;2023-03-01T17:17:26;4.10;48.90
2893;DHT22;1456;51.840;12.184;2023-03-01T17:19:52;3.90;49.60
2893;DHT22;1456;51.840;12.184;2023-03-01T17:22:19;3.90;49.80
2893;DHT22;1456;51.840;12.184;2023-03-01T17:24:45;3.70;50.10
2893;DHT22;1456;51.840;12.184;2023-03-01T17:27:12;3.60;50.70
2893;DHT22;1456;51.840;12.184;2023-03-01T17:29:39;3.60;51.70
2893;DHT22;1456;51.840;12.184;2023-03-01T17:32:06;3.50;52.30
2893;DHT22;1456;51.840;12.184;2023-03-01T17:34:32;3.40;51.90
2893;DHT22;1456;51.840;12.184;2023-03-01T17:36:59;3.30;53.00
2893;DHT22;1456;51.840;12.184;2023-03-01T17:39:25;3.20;54.30
2893;DHT22;1456;51.840;12.184;2023-03-01T17:41:57;3.00;56.60
2893;DHT22;1456;51.840;12.184;2023-03-01T17:44:23;2.90;58.10
2893;DHT22;1456;51.840;12.184;2023-03-01T17:46:49;2.70;58.60
2893;DHT22;1456;51.840;12.184;2023-03-01T17:49:18;2.60;59.60
2893;DHT22;1456;51.840;12.184;2023-03-01T17:51:44;2.40;63.40
2893;DHT22;1456;51.840;12.184;2023-03-01T17:54:10;2.30;64.10
2893;DHT22;1456;51.840;12.184;2023-03-01T17:56:36;2.30;65.30
2893;DHT22;1456;51.840;12.184;2023-03-01T17:59:04;2.10;66.00
2893;DHT22;1456;51.840;12.184;2023-03-01T18:01:30;2.10;65.90
2893;DHT22;1456;51.840;12.184;2023-03-01T18:03:59;2.10;66.40
2893;DHT22;1456;51.840;12.184;2023-03-01T18:06:26;2.00;67.00
2893;DHT22;1456;51.840;12.184;2023-03-01T18:08:52;1.90;70.60
2893;DHT22;1456;51.840;12.184;2023-03-01T18:11:22;1.80;72.50
2893;DHT22;1456;51.840;12.184;2023-03-01T18:13:53;1.70;72.30
2893;DHT22;1456;51.840;12.184;2023-03-01T18:16:21;1.60;72.50
2893;DHT22;1456;51.840;12.184;2023-03-01T18:18:58;1.50;75.00
2893;DHT22;1456;51.840;12.184;2023-03-01T18:21:24;1.40;75.30
2893;DHT22;1456;51.840;12.184;2023-03-01T18:23:52;1.30;75.60
2893;DHT22;1456;51.840;12.184;2023-03-01T18:26:18;1.30;76.60
2893;DHT22;1456;51.840;12.184;2023-03-01T18:28:47;1.20;77.40
2893;DHT22;1456;51.840;12.184;2023-03-01T18:31:16;1.10;79.20
2893;DHT22;1456;51.840;12.184;2023-03-01T18:33:47;1.00;80.20
2893;DHT22;1456;51.840;12.184;2023-03-01T18:36:24;0.90;81.70
2893;DHT22;1456;51.840;12.184;2023-03-01T18:38:52;0.90;83.00